sensor_id;sensor_type;location;lat;lon;timestamp;P1;durP1;ratioP1;P2;durP2;ratioP2
35550;SDS011;21655;46.056;13.616;2023-08-31T00:02:05;4.78;;;0.70;;
35550;SDS011;21655;46.056;13.616;2023-08-31T00:04:31;3.45;;;0.77;;
35550;SDS011;21655;46.056;13.616;2023-08-31T00:06:56;4.30;;;0.70;;
35550;SDS011;21655;46.056;13.616;2023-08-31T00:09:23;3.85;;;1.15;;
35550;SDS011;21655;46.056;13.616;2023-08-31T00:11:49;4.43;;;0.60;;
35550;SDS011;21655;46.056;13.616;2023-08-31T00:14:15;3.22;;;0.70;;
35550;SDS011;21655;46.056;13.616;2023-08-31T00:16:41;6.35;;;0.75;;
35550;SDS011;21655;46.056;13.616;2023-08-31T00:19:07;5.50;;;1.15;;
35550;SDS011;21655;46.056;13.616;2023-08-31T00:21:32;3.67;;;0.63;;
35550;SDS011;21655;46.056;13.616;2023-08-31T00:23:58;6.75;;;0.80;;
35550;SDS011;21655;46.056;13.616;2023-08-31T00:26:24;8.02;;;0.90;;
35550;SDS011;21655;46.056;13.616;2023-08-31T00:28:50;6.45;;;0.80;;
35550;SDS011;21655;46.056;13.616;2023-08-31T00:31:15;9.73;;;0.90;;
35550;SDS011;21655;46.056;13.616;2023-08-31T00:33:41;9.32;;;1.00;;
35550;SDS011;21655;46.056;13.616;2023-08-31T00:36:06;3.85;;;1.15;;
35550;SDS011;21655;46.056;13.616;2023-08-31T00:38:32;3.88;;;0.70;;
35550;SDS011;21655;46.056;13.616;2023-08-31T00:40:58;12.50;;;1.17;;
35550;SDS011;21655;46.056;13.616;2023-08-31T00:43:24;6.95;;;0.85;;
35550;SDS011;21655;46.056;13.616;2023-08-31T00:45:50;8.90;;;0.93;;
35550;SDS011;21655;46.056;13.616;2023-08-31T00:48:17;6.78;;;1.02;;
35550;SDS011;21655;46.056;13.616;2023-08-31T00:50:46;6.20;;;0.90;;
35550;SDS011;21655;46.056;13.616;2023-08-31T00:53:13;4.72;;;0.70;;
35550;SDS011;21655;46.056;13.616;2023-08-31T00:55:40;3.25;;;0.77;;
35550;SDS011;21655;46.056;13.616;2023-08-31T00:58:06;4.03;;;1.00;;
35550;SDS011;21655;46.056;13.616;2023-08-31T01:03:31;5.00;;;0.70;;
35550;SDS011;21655;46.056;13.616;2023-08-31T01:14:17;3.70;;;0.70;;
35550;SDS011;21655;46.056;13.616;2023-08-31T01:16:45;7.45;;;0.70;;
35550;SDS011;21655;46.056;13.616;2023-08-31T01:19:58;7.20;;;0.82;;
35550;SDS011;21655;46.056;13.616;2023-08-31T01:25:08;4.15;;;0.80;;
35550;SDS011;21655;46.056;13.616;2023-08-31T01:27:34;5.28;;;0.80;;
35550;SDS011;21655;46.056;13.616;2023-08-31T01:30:01;1.80;;;0.82;;
35550;SDS011;21655;46.056;13.616;2023-08-31T01:32:28;1.92;;;0.70;;
35550;SDS011;21655;46.056;13.616;2023-08-31T01:34:54;10.30;;;1.27;;
35550;SDS011;21655;46.056;13.616;2023-08-31T01:37:37;8.50;;;1.13;;
35550;SDS011;21655;46.056;13.616;2023-08-31T01:40:12;7.47;;;1.00;;
35550;SDS011;21655;46.056;13.616;2023-08-31T01:42:42;3.70;;;0.80;;
35550;SDS011;21655;46.056;13.616;2023-08-31T01:45:14;7.10;;;1.00;;
35550;SDS011;21655;46.056;13.616;2023-08-31T01:47:45;7.70;;;0.93;;
35550;SDS011;21655;46.056;13.616;2023-08-31T01:50:11;6.95;;;0.88;;
35550;SDS011;21655;46.056;13.616;2023-08-31T01:52:36;6.35;;;0.80;;
35550;SDS011;21655;46.056;13.616;2023-08-31T01:55:02;8.35;;;1.65;;
35550;SDS011;21655;46.056;13.616;2023-08-31T01:57:28;9.48;;;1.00;;
35550;SDS011;21655;46.056;13.616;2023-08-31T01:59:53;4.85;;;1.00;;
35550;SDS011;21655;46.056;13.616;2023-08-31T02:02:19;6.22;;;1.00;;
35550;SDS011;21655;46.056;13.616;2023-08-31T02:04:45;4.10;;;1.05;;
35550;SDS011;21655;46.056;13.616;2023-08-31T02:07:11;5.80;;;0.90;;
35550;SDS011;21655;46.056;13.616;2023-08-31T02:09:37;2.75;;;0.80;;
35550;SDS011;21655;46.056;13.616;2023-08-31T02:12:02;4.00;;;1.35;;
35550;SDS011;21655;46.056;13.616;2023-08-31T02:14:29;3.90;;;0.80;;
35550;SDS011;21655;46.056;13.616;2023-08-31T02:16:55;5.53;;;0.88;;
35550;SDS011;21655;46.056;13.616;2023-08-31T02:19:20;2.58;;;0.93;;
35550;SDS011;21655;46.056;13.616;2023-08-31T02:21:46;4.68;;;0.90;;
35550;SDS011;21655;46.056;13.616;2023-08-31T02:24:11;4.15;;;0.88;;
35550;SDS011;21655;46.056;13.616;2023-08-31T02:26:36;6.15;;;0.90;;
35550;SDS011;21655;46.056;13.616;2023-08-31T02:29:02;11.20;;;1.88;;
35550;SDS011;21655;46.056;13.616;2023-08-31T02:31:28;2.35;;;0.80;;
35550;SDS011;21655;46.056;13.616;2023-08-31T02:33:53;6.55;;;0.95;;
35550;SDS011;21655;46.056;13.616;2023-08-31T02:36:19;10.15;;;1.02;;
35550;SDS011;21655;46.056;13.616;2023-08-31T02:38:46;5.82;;;0.95;;
35550;SDS011;21655;46.056;13.616;2023-08-31T02:41:11;8.45;;;1.60;;
35550;SDS011;21655;46.056;13.616;2023-08-31T02:43:38;7.53;;;1.00;;
35550;SDS011;21655;46.056;13.616;2023-08-31T02:46:04;4.43;;;0.77;;
35550;SDS011;21655;46.056;13.616;2023-08-31T02:48:31;5.40;;;1.02;;
35550;SDS011;21655;46.056;13.616;2023-08-31T02:50:57;6.07;;;1.02;;
35550;SDS011;21655;46.056;13.616;2023-08-31T02:53:26;1.67;;;0.85;;
35550;SDS011;21655;46.056;13.616;2023-08-31T02:55:52;3.70;;;0.80;;
35550;SDS011;21655;46.056;13.616;2023-08-31T02:58:18;9.82;;;1.23;;
35550;SDS011;21655;46.056;13.616;2023-08-31T03:00:44;6.30;;;1.05;;
35550;SDS011;21655;46.056;13.616;2023-08-31T03:03:13;3.75;;;0.95;;
35550;SDS011;21655;46.056;13.616;2023-08-31T03:05:39;6.15;;;1.10;;
35550;SDS011;21655;46.056;13.616;2023-08-31T03:08:05;2.72;;;0.90;;
35550;SDS011;21655;46.056;13.616;2023-08-31T03:10:30;5.70;;;0.90;;
35550;SDS011;21655;46.056;13.616;2023-08-31T03:12:56;4.50;;;0.90;;
35550;SDS011;21655;46.056;13.616;2023-08-31T03:15:21;4.20;;;1.10;;
35550;SDS011;21655;46.056;13.616;2023-08-31T03:17:47;2.53;;;0.77;;
35550;SDS011;21655;46.056;13.616;2023-08-31T03:20:12;7.38;;;1.00;;
35550;SDS011;21655;46.056;13.616;2023-08-31T03:22:37;4.70;;;0.80;;
35550;SDS011;21655;46.056;13.616;2023-08-31T03:25:03;3.60;;;0.90;;
35550;SDS011;21655;46.056;13.616;2023-08-31T03:27:29;6.90;;;1.20;;
35550;SDS011;21655;46.056;13.616;2023-08-31T03:29:54;9.27;;;1.00;;
35550;SDS011;21655;46.056;13.616;2023-08-31T03:32:19;3.30;;;0.88;;
35550;SDS011;21655;46.056;13.616;2023-08-31T03:34:45;7.50;;;0.80;;
35550;SDS011;21655;46.056;13.616;2023-08-31T03:37:11;2.47;;;1.00;;
35550;SDS011;21655;46.056;13.616;2023-08-31T03:39:36;6.05;;;0.90;;
35550;SDS011;21655;46.056;13.616;2023-08-31T03:42:02;6.55;;;1.05;;
35550;SDS011;21655;46.056;13.616;2023-08-31T03:44:27;4.45;;;0.90;;
35550;SDS011;21655;46.056;13.616;2023-08-31T03:46:53;6.25;;;0.90;;
35550;SDS011;21655;46.056;13.616;2023-08-31T03:49:18;7.43;;;1.10;;
35550;SDS011;21655;46.056;13.616;2023-08-31T03:51:44;7.80;;;0.95;;
35550;SDS011;21655;46.056;13.616;2023-08-31T03:54:09;4.63;;;1.08;;
35550;SDS011;21655;46.056;13.616;2023-08-31T03:56:35;5.82;;;1.17;;
35550;SDS011;21655;46.056;13.616;2023-08-31T03:59:02;5.78;;;0.90;;
35550;SDS011;21655;46.056;13.616;2023-08-31T04:01:29;4.88;;;0.88;;
35550;SDS011;21655;46.056;13.616;2023-08-31T04:03:54;2.08;;;0.77;;
35550;SDS011;21655;46.056;13.616;2023-08-31T04:06:21;4.57;;;0.90;;
35550;SDS011;21655;46.056;13.616;2023-08-31T04:08:46;3.85;;;0.70;;
35550;SDS011;21655;46.056;13.616;2023-08-31T04:11:12;10.57;;;1.20;;
35550;SDS011;21655;46.056;13.616;2023-08-31T04:13:37;9.52;;;0.98;;
35550;SDS011;21655;46.056;13.616;2023-08-31T04:16:03;8.15;;;1.27;;
35550;SDS011;21655;46.056;13.616;2023-08-31T04:18:28;5.45;;;1.20;;
35550;SDS011;21655;46.056;13.616;2023-08-31T04:20:54;10.13;;;1.05;;
35550;SDS011;21655;46.056;13.616;2023-08-31T04:23:20;6.05;;;1.17;;
35550;SDS011;21655;46.056;13.616;2023-08-31T04:25:46;8.20;;;1.10;;
35550;SDS011;21655;46.056;13.616;2023-08-31T04:28:12;2.97;;;1.10;;
35550;SDS011;21655;46.056;13.616;2023-08-31T04:30:41;8.30;;;0.85;;
35550;SDS011;21655;46.056;13.616;2023-08-31T04:33:07;3.72;;;1.00;;
35550;SDS011;21655;46.056;13.616;2023-08-31T04:35:33;12.18;;;1.50;;
35550;SDS011;21655;46.056;13.616;2023-08-31T04:37:58;7.65;;;1.08;;
35550;SDS011;21655;46.056;13.616;2023-08-31T04:40:24;5.35;;;0.93;;
35550;SDS011;21655;46.056;13.616;2023-08-31T04:42:49;2.13;;;0.80;;
35550;SDS011;21655;46.056;13.616;2023-08-31T04:45:15;2.88;;;0.90;;
35550;SDS011;21655;46.056;13.616;2023-08-31T04:47:41;3.58;;;1.08;;
35550;SDS011;21655;46.056;13.616;2023-08-31T04:50:07;4.90;;;0.80;;
35550;SDS011;21655;46.056;13.616;2023-08-31T04:52:33;5.45;;;1.10;;
35550;SDS011;21655;46.056;13.616;2023-08-31T04:55:02;6.22;;;1.00;;
35550;SDS011;21655;46.056;13.616;2023-08-31T04:57:32;2.75;;;0.88;;
35550;SDS011;21655;46.056;13.616;2023-08-31T04:59:58;4.40;;;1.08;;
35550;SDS011;21655;46.056;13.616;2023-08-31T05:02:23;3.92;;;1.05;;
35550;SDS011;21655;46.056;13.616;2023-08-31T05:04:48;7.65;;;1.20;;
35550;SDS011;21655;46.056;13.616;2023-08-31T05:07:14;6.90;;;0.98;;
35550;SDS011;21655;46.056;13.616;2023-08-31T05:09:39;3.83;;;1.20;;
35550;SDS011;21655;46.056;13.616;2023-08-31T05:12:05;4.63;;;1.00;;
35550;SDS011;21655;46.056;13.616;2023-08-31T05:14:32;4.63;;;0.90;;
35550;SDS011;21655;46.056;13.616;2023-08-31T05:17:02;21.65;;;3.30;;
35550;SDS011;21655;46.056;13.616;2023-08-31T05:19:28;21.08;;;3.38;;
35550;SDS011;21655;46.056;13.616;2023-08-31T05:21:54;18.48;;;4.22;;
35550;SDS011;21655;46.056;13.616;2023-08-31T05:24:19;25.27;;;4.18;;
35550;SDS011;21655;46.056;13.616;2023-08-31T05:26:44;6.78;;;1.67;;
35550;SDS011;21655;46.056;13.616;2023-08-31T05:29:10;24.98;;;4.32;;
35550;SDS011;21655;46.056;13.616;2023-08-31T05:31:35;23.85;;;3.88;;
35550;SDS011;21655;46.056;13.616;2023-08-31T05:34:02;16.23;;;3.63;;
35550;SDS011;21655;46.056;13.616;2023-08-31T05:36:27;5.78;;;1.83;;
35550;SDS011;21655;46.056;13.616;2023-08-31T05:38:52;15.95;;;2.60;;
35550;SDS011;21655;46.056;13.616;2023-08-31T05:41:18;6.47;;;1.60;;
35550;SDS011;21655;46.056;13.616;2023-08-31T05:43:43;4.15;;;2.00;;
35550;SDS011;21655;46.056;13.616;2023-08-31T05:46:10;6.60;;;1.20;;
35550;SDS011;21655;46.056;13.616;2023-08-31T05:48:36;5.60;;;1.77;;
35550;SDS011;21655;46.056;13.616;2023-08-31T05:51:02;4.80;;;0.95;;
35550;SDS011;21655;46.056;13.616;2023-08-31T05:53:29;8.15;;;1.02;;
35550;SDS011;21655;46.056;13.616;2023-08-31T05:55:55;2.90;;;1.00;;
35550;SDS011;21655;46.056;13.616;2023-08-31T05:58:28;3.47;;;0.90;;
35550;SDS011;21655;46.056;13.616;2023-08-31T06:00:55;6.18;;;1.00;;
35550;SDS011;21655;46.056;13.616;2023-08-31T06:03:20;6.70;;;0.80;;
35550;SDS011;21655;46.056;13.616;2023-08-31T06:05:45;11.15;;;0.90;;
35550;SDS011;21655;46.056;13.616;2023-08-31T06:08:11;5.43;;;1.08;;
35550;SDS011;21655;46.056;13.616;2023-08-31T06:10:36;2.45;;;0.70;;
35550;SDS011;21655;46.056;13.616;2023-08-31T06:13:02;11.25;;;1.00;;
35550;SDS011;21655;46.056;13.616;2023-08-31T06:15:27;1.70;;;0.90;;
35550;SDS011;21655;46.056;13.616;2023-08-31T06:17:53;3.00;;;0.70;;
35550;SDS011;21655;46.056;13.616;2023-08-31T06:20:18;4.65;;;0.90;;
35550;SDS011;21655;46.056;13.616;2023-08-31T06:22:44;6.00;;;1.05;;
35550;SDS011;21655;46.056;13.616;2023-08-31T06:25:09;2.65;;;0.70;;
35550;SDS011;21655;46.056;13.616;2023-08-31T06:27:36;3.25;;;0.70;;
35550;SDS011;21655;46.056;13.616;2023-08-31T06:30:01;4.90;;;1.35;;
35550;SDS011;21655;46.056;13.616;2023-08-31T06:32:27;2.05;;;0.90;;
35550;SDS011;21655;46.056;13.616;2023-08-31T06:34:53;5.22;;;1.00;;
35550;SDS011;21655;46.056;13.616;2023-08-31T06:37:18;5.68;;;1.52;;
35550;SDS011;21655;46.056;13.616;2023-08-31T06:39:45;2.22;;;0.73;;
35550;SDS011;21655;46.056;13.616;2023-08-31T06:42:11;3.10;;;0.90;;
35550;SDS011;21655;46.056;13.616;2023-08-31T06:44:36;6.05;;;0.82;;
35550;SDS011;21655;46.056;13.616;2023-08-31T06:47:01;0.77;;;0.50;;
35550;SDS011;21655;46.056;13.616;2023-08-31T06:49:28;1.85;;;0.65;;
35550;SDS011;21655;46.056;13.616;2023-08-31T06:51:55;3.10;;;0.68;;
35550;SDS011;21655;46.056;13.616;2023-08-31T06:54:20;3.38;;;0.63;;
35550;SDS011;21655;46.056;13.616;2023-08-31T06:56:46;4.78;;;0.70;;
35550;SDS011;21655;46.056;13.616;2023-08-31T06:59:12;2.83;;;0.50;;
35550;SDS011;21655;46.056;13.616;2023-08-31T07:01:37;4.93;;;0.63;;
35550;SDS011;21655;46.056;13.616;2023-08-31T07:04:03;1.48;;;0.32;;
35550;SDS011;21655;46.056;13.616;2023-08-31T07:06:29;2.58;;;0.52;;
35550;SDS011;21655;46.056;13.616;2023-08-31T07:08:54;2.60;;;0.70;;
35550;SDS011;21655;46.056;13.616;2023-08-31T07:11:20;2.42;;;0.80;;
35550;SDS011;21655;46.056;13.616;2023-08-31T07:13:46;3.72;;;0.60;;
35550;SDS011;21655;46.056;13.616;2023-08-31T07:16:11;1.00;;;0.45;;
35550;SDS011;21655;46.056;13.616;2023-08-31T07:18:37;1.70;;;1.05;;
35550;SDS011;21655;46.056;13.616;2023-08-31T07:21:02;3.58;;;0.60;;
35550;SDS011;21655;46.056;13.616;2023-08-31T07:23:29;2.60;;;0.50;;
35550;SDS011;21655;46.056;13.616;2023-08-31T07:25:58;6.13;;;0.68;;
35550;SDS011;21655;46.056;13.616;2023-08-31T07:28:25;1.77;;;0.63;;
35550;SDS011;21655;46.056;13.616;2023-08-31T07:31:00;1.75;;;0.60;;
35550;SDS011;21655;46.056;13.616;2023-08-31T07:33:26;2.22;;;0.50;;
35550;SDS011;21655;46.056;13.616;2023-08-31T07:35:52;4.80;;;1.05;;
35550;SDS011;21655;46.056;13.616;2023-08-31T07:38:17;5.55;;;0.63;;
35550;SDS011;21655;46.056;13.616;2023-08-31T07:40:42;1.58;;;0.50;;
35550;SDS011;21655;46.056;13.616;2023-08-31T07:43:08;4.00;;;0.60;;
35550;SDS011;21655;46.056;13.616;2023-08-31T07:45:33;2.25;;;0.50;;
35550;SDS011;21655;46.056;13.616;2023-08-31T07:47:59;1.42;;;0.50;;
35550;SDS011;21655;46.056;13.616;2023-08-31T07:50:24;1.08;;;0.40;;
35550;SDS011;21655;46.056;13.616;2023-08-31T07:52:50;4.50;;;0.82;;
35550;SDS011;21655;46.056;13.616;2023-08-31T07:55:15;1.45;;;0.60;;
35550;SDS011;21655;46.056;13.616;2023-08-31T07:57:41;0.80;;;0.40;;
35550;SDS011;21655;46.056;13.616;2023-08-31T08:00:06;2.17;;;0.50;;
35550;SDS011;21655;46.056;13.616;2023-08-31T08:02:32;6.35;;;1.05;;
35550;SDS011;21655;46.056;13.616;2023-08-31T08:04:58;6.97;;;0.50;;
35550;SDS011;21655;46.056;13.616;2023-08-31T08:07:23;1.73;;;0.50;;
35550;SDS011;21655;46.056;13.616;2023-08-31T08:09:49;3.58;;;0.50;;
35550;SDS011;21655;46.056;13.616;2023-08-31T08:12:14;3.60;;;0.50;;
35550;SDS011;21655;46.056;13.616;2023-08-31T08:14:39;3.22;;;0.50;;
35550;SDS011;21655;46.056;13.616;2023-08-31T08:17:05;4.50;;;0.70;;
35550;SDS011;21655;46.056;13.616;2023-08-31T08:19:30;1.52;;;0.40;;
35550;SDS011;21655;46.056;13.616;2023-08-31T08:21:56;3.53;;;0.60;;
35550;SDS011;21655;46.056;13.616;2023-08-31T08:24:21;3.60;;;0.63;;
35550;SDS011;21655;46.056;13.616;2023-08-31T08:26:47;3.70;;;0.60;;
35550;SDS011;21655;46.056;13.616;2023-08-31T08:29:13;4.43;;;0.60;;
35550;SDS011;21655;46.056;13.616;2023-08-31T08:31:38;1.80;;;0.55;;
35550;SDS011;21655;46.056;13.616;2023-08-31T08:34:03;3.05;;;0.50;;
35550;SDS011;21655;46.056;13.616;2023-08-31T08:36:29;4.22;;;0.70;;
35550;SDS011;21655;46.056;13.616;2023-08-31T08:38:55;6.22;;;1.02;;
35550;SDS011;21655;46.056;13.616;2023-08-31T08:41:22;2.80;;;0.98;;
35550;SDS011;21655;46.056;13.616;2023-08-31T08:43:48;2.97;;;0.60;;
35550;SDS011;21655;46.056;13.616;2023-08-31T08:46:16;4.45;;;0.50;;
35550;SDS011;21655;46.056;13.616;2023-08-31T08:48:42;3.22;;;0.65;;
35550;SDS011;21655;46.056;13.616;2023-08-31T08:51:09;1.00;;;0.50;;
35550;SDS011;21655;46.056;13.616;2023-08-31T08:53:35;3.13;;;0.43;;
35550;SDS011;21655;46.056;13.616;2023-08-31T08:56:03;2.53;;;0.68;;
35550;SDS011;21655;46.056;13.616;2023-08-31T08:58:29;2.78;;;0.60;;
35550;SDS011;21655;46.056;13.616;2023-08-31T09:00:54;1.52;;;0.55;;
35550;SDS011;21655;46.056;13.616;2023-08-31T09:03:22;2.83;;;0.80;;
35550;SDS011;21655;46.056;13.616;2023-08-31T09:05:49;4.43;;;0.50;;
35550;SDS011;21655;46.056;13.616;2023-08-31T09:08:15;2.38;;;0.40;;
35550;SDS011;21655;46.056;13.616;2023-08-31T09:10:43;2.25;;;0.70;;
35550;SDS011;21655;46.056;13.616;2023-08-31T09:13:13;1.25;;;0.50;;
35550;SDS011;21655;46.056;13.616;2023-08-31T09:20:48;1.85;;;0.60;;
35550;SDS011;21655;46.056;13.616;2023-08-31T09:23:14;2.30;;;0.50;;
35550;SDS011;21655;46.056;13.616;2023-08-31T09:25:41;1.10;;;0.50;;
35550;SDS011;21655;46.056;13.616;2023-08-31T09:28:11;2.35;;;0.70;;
35550;SDS011;21655;46.056;13.616;2023-08-31T09:30:37;1.52;;;0.60;;
35550;SDS011;21655;46.056;13.616;2023-08-31T09:33:09;6.25;;;0.70;;
35550;SDS011;21655;46.056;13.616;2023-08-31T09:35:42;1.77;;;0.50;;
35550;SDS011;21655;46.056;13.616;2023-08-31T09:38:20;2.80;;;0.50;;
35550;SDS011;21655;46.056;13.616;2023-08-31T09:40:46;3.17;;;0.50;;
35550;SDS011;21655;46.056;13.616;2023-08-31T09:43:12;2.30;;;0.50;;
35550;SDS011;21655;46.056;13.616;2023-08-31T09:45:45;2.38;;;0.73;;
35550;SDS011;21655;46.056;13.616;2023-08-31T09:48:11;1.55;;;0.43;;
35550;SDS011;21655;46.056;13.616;2023-08-31T09:50:38;2.15;;;0.63;;
35550;SDS011;21655;46.056;13.616;2023-08-31T09:53:04;3.28;;;0.57;;
35550;SDS011;21655;46.056;13.616;2023-08-31T09:55:33;0.77;;;0.40;;
35550;SDS011;21655;46.056;13.616;2023-08-31T09:57:59;0.90;;;0.50;;
35550;SDS011;21655;46.056;13.616;2023-08-31T10:00:27;4.38;;;0.47;;
35550;SDS011;21655;46.056;13.616;2023-08-31T10:02:56;0.68;;;0.45;;
35550;SDS011;21655;46.056;13.616;2023-08-31T10:05:23;0.88;;;0.47;;
35550;SDS011;21655;46.056;13.616;2023-08-31T10:07:52;1.63;;;0.70;;
35550;SDS011;21655;46.056;13.616;2023-08-31T10:10:18;2.08;;;0.50;;
35550;SDS011;21655;46.056;13.616;2023-08-31T10:12:47;1.17;;;0.50;;
35550;SDS011;21655;46.056;13.616;2023-08-31T10:15:14;1.77;;;0.60;;
35550;SDS011;21655;46.056;13.616;2023-08-31T10:17:41;1.20;;;0.57;;
35550;SDS011;21655;46.056;13.616;2023-08-31T10:20:08;2.38;;;0.40;;
35550;SDS011;21655;46.056;13.616;2023-08-31T10:22:36;0.80;;;0.40;;
35550;SDS011;21655;46.056;13.616;2023-08-31T10:25:06;1.10;;;0.43;;
35550;SDS011;21655;46.056;13.616;2023-08-31T10:27:50;1.95;;;0.40;;
35550;SDS011;21655;46.056;13.616;2023-08-31T10:35:40;1.08;;;0.50;;
35550;SDS011;21655;46.056;13.616;2023-08-31T10:38:17;1.48;;;0.40;;
35550;SDS011;21655;46.056;13.616;2023-08-31T10:41:02;2.05;;;0.40;;
35550;SDS011;21655;46.056;13.616;2023-08-31T10:43:43;0.95;;;0.38;;
35550;SDS011;21655;46.056;13.616;2023-08-31T10:46:16;1.10;;;0.35;;
35550;SDS011;21655;46.056;13.616;2023-08-31T10:49:01;1.15;;;0.43;;
35550;SDS011;21655;46.056;13.616;2023-08-31T10:51:40;0.90;;;0.50;;
35550;SDS011;21655;46.056;13.616;2023-08-31T10:54:20;1.55;;;0.50;;
35550;SDS011;21655;46.056;13.616;2023-08-31T11:07:45;4.40;;;0.73;;
35550;SDS011;21655;46.056;13.616;2023-08-31T11:12:45;0.70;;;0.50;;
35550;SDS011;21655;46.056;13.616;2023-08-31T11:15:16;2.10;;;0.43;;
35550;SDS011;21655;46.056;13.616;2023-08-31T11:20:15;2.35;;;0.70;;
35550;SDS011;21655;46.056;13.616;2023-08-31T11:22:42;1.00;;;0.43;;
35550;SDS011;21655;46.056;13.616;2023-08-31T11:25:08;1.70;;;0.50;;
35550;SDS011;21655;46.056;13.616;2023-08-31T11:27:36;3.70;;;0.60;;
35550;SDS011;21655;46.056;13.616;2023-08-31T11:30:02;1.48;;;0.50;;
35550;SDS011;21655;46.056;13.616;2023-08-31T11:32:29;0.85;;;0.60;;
35550;SDS011;21655;46.056;13.616;2023-08-31T11:34:54;0.90;;;0.60;;
35550;SDS011;21655;46.056;13.616;2023-08-31T11:37:20;1.65;;;0.60;;
35550;SDS011;21655;46.056;13.616;2023-08-31T11:39:52;1.02;;;0.57;;
35550;SDS011;21655;46.056;13.616;2023-08-31T11:42:19;1.52;;;0.60;;
35550;SDS011;21655;46.056;13.616;2023-08-31T11:44:46;1.52;;;0.50;;
35550;SDS011;21655;46.056;13.616;2023-08-31T11:47:13;0.82;;;0.50;;
35550;SDS011;21655;46.056;13.616;2023-08-31T11:49:40;1.15;;;0.60;;
35550;SDS011;21655;46.056;13.616;2023-08-31T11:52:08;0.95;;;0.55;;
35550;SDS011;21655;46.056;13.616;2023-08-31T11:54:39;1.45;;;0.70;;
35550;SDS011;21655;46.056;13.616;2023-08-31T11:57:08;0.80;;;0.50;;
35550;SDS011;21655;46.056;13.616;2023-08-31T11:59:35;2.05;;;0.57;;
35550;SDS011;21655;46.056;13.616;2023-08-31T12:02:02;2.13;;;0.60;;
35550;SDS011;21655;46.056;13.616;2023-08-31T12:04:30;2.22;;;0.50;;
35550;SDS011;21655;46.056;13.616;2023-08-31T12:07:03;1.65;;;0.60;;
35550;SDS011;21655;46.056;13.616;2023-08-31T12:09:31;1.50;;;0.60;;
35550;SDS011;21655;46.056;13.616;2023-08-31T12:11:57;2.38;;;0.60;;
35550;SDS011;21655;46.056;13.616;2023-08-31T12:14:24;1.65;;;0.70;;
35550;SDS011;21655;46.056;13.616;2023-08-31T12:16:51;1.35;;;0.60;;
35550;SDS011;21655;46.056;13.616;2023-08-31T12:19:17;3.72;;;0.60;;
35550;SDS011;21655;46.056;13.616;2023-08-31T12:21:43;1.15;;;0.60;;
35550;SDS011;21655;46.056;13.616;2023-08-31T12:24:11;1.45;;;0.60;;
35550;SDS011;21655;46.056;13.616;2023-08-31T12:26:37;0.70;;;0.40;;
35550;SDS011;21655;46.056;13.616;2023-08-31T12:29:03;2.95;;;0.57;;
35550;SDS011;21655;46.056;13.616;2023-08-31T12:31:32;2.15;;;0.60;;
35550;SDS011;21655;46.056;13.616;2023-08-31T12:33:58;1.42;;;0.60;;
35550;SDS011;21655;46.056;13.616;2023-08-31T12:36:24;1.75;;;0.63;;
35550;SDS011;21655;46.056;13.616;2023-08-31T12:38:50;4.22;;;0.70;;
35550;SDS011;21655;46.056;13.616;2023-08-31T12:41:16;1.70;;;0.60;;
35550;SDS011;21655;46.056;13.616;2023-08-31T12:43:43;1.50;;;0.60;;
35550;SDS011;21655;46.056;13.616;2023-08-31T12:46:08;1.20;;;0.50;;
35550;SDS011;21655;46.056;13.616;2023-08-31T12:48:34;1.13;;;0.60;;
35550;SDS011;21655;46.056;13.616;2023-08-31T12:51:00;1.60;;;0.60;;
35550;SDS011;21655;46.056;13.616;2023-08-31T12:53:26;2.47;;;0.80;;
35550;SDS011;21655;46.056;13.616;2023-08-31T12:55:52;0.93;;;0.50;;
35550;SDS011;21655;46.056;13.616;2023-08-31T12:58:18;2.10;;;0.77;;
35550;SDS011;21655;46.056;13.616;2023-08-31T13:00:44;2.22;;;0.70;;
35550;SDS011;21655;46.056;13.616;2023-08-31T13:03:11;1.35;;;0.63;;
35550;SDS011;21655;46.056;13.616;2023-08-31T13:05:40;2.83;;;0.70;;
35550;SDS011;21655;46.056;13.616;2023-08-31T13:08:06;1.30;;;0.73;;
35550;SDS011;21655;46.056;13.616;2023-08-31T13:10:32;0.95;;;0.50;;
35550;SDS011;21655;46.056;13.616;2023-08-31T13:12:58;4.68;;;0.82;;
35550;SDS011;21655;46.056;13.616;2023-08-31T13:15:23;0.80;;;0.50;;
35550;SDS011;21655;46.056;13.616;2023-08-31T13:17:49;1.35;;;0.80;;
35550;SDS011;21655;46.056;13.616;2023-08-31T13:20:14;1.63;;;0.50;;
35550;SDS011;21655;46.056;13.616;2023-08-31T13:22:40;0.90;;;0.50;;
35550;SDS011;21655;46.056;13.616;2023-08-31T13:25:06;0.90;;;0.50;;
35550;SDS011;21655;46.056;13.616;2023-08-31T13:27:31;0.82;;;0.55;;
35550;SDS011;21655;46.056;13.616;2023-08-31T13:30:00;1.23;;;0.50;;
35550;SDS011;21655;46.056;13.616;2023-08-31T13:32:25;1.85;;;0.60;;
35550;SDS011;21655;46.056;13.616;2023-08-31T13:34:51;2.15;;;0.50;;
35550;SDS011;21655;46.056;13.616;2023-08-31T13:37:18;1.25;;;0.60;;
35550;SDS011;21655;46.056;13.616;2023-08-31T13:39:44;1.33;;;0.60;;
35550;SDS011;21655;46.056;13.616;2023-08-31T13:42:09;1.23;;;0.45;;
35550;SDS011;21655;46.056;13.616;2023-08-31T13:44:35;0.93;;;0.40;;
35550;SDS011;21655;46.056;13.616;2023-08-31T13:47:01;2.47;;;0.52;;
35550;SDS011;21655;46.056;13.616;2023-08-31T13:49:28;1.10;;;0.60;;
35550;SDS011;21655;46.056;13.616;2023-08-31T13:51:54;1.52;;;0.52;;
35550;SDS011;21655;46.056;13.616;2023-08-31T13:54:20;0.73;;;0.47;;
35550;SDS011;21655;46.056;13.616;2023-08-31T13:56:45;0.98;;;0.50;;
35550;SDS011;21655;46.056;13.616;2023-08-31T13:59:11;1.20;;;0.43;;
35550;SDS011;21655;46.056;13.616;2023-08-31T14:01:36;2.33;;;0.60;;
35550;SDS011;21655;46.056;13.616;2023-08-31T14:04:03;0.75;;;0.50;;
35550;SDS011;21655;46.056;13.616;2023-08-31T14:06:29;1.10;;;0.63;;
35550;SDS011;21655;46.056;13.616;2023-08-31T14:08:55;3.53;;;0.73;;
35550;SDS011;21655;46.056;13.616;2023-08-31T14:11:20;2.97;;;0.57;;
35550;SDS011;21655;46.056;13.616;2023-08-31T14:13:45;1.10;;;0.60;;
35550;SDS011;21655;46.056;13.616;2023-08-31T14:16:11;0.98;;;0.52;;
35550;SDS011;21655;46.056;13.616;2023-08-31T14:18:37;1.02;;;0.60;;
35550;SDS011;21655;46.056;13.616;2023-08-31T14:21:03;2.13;;;0.70;;
35550;SDS011;21655;46.056;13.616;2023-08-31T14:23:29;1.48;;;0.52;;
35550;SDS011;21655;46.056;13.616;2023-08-31T14:26:00;1.73;;;0.70;;
35550;SDS011;21655;46.056;13.616;2023-08-31T14:28:26;1.13;;;0.45;;
35550;SDS011;21655;46.056;13.616;2023-08-31T14:30:51;1.17;;;0.50;;
35550;SDS011;21655;46.056;13.616;2023-08-31T14:33:17;1.83;;;0.50;;
35550;SDS011;21655;46.056;13.616;2023-08-31T14:35:42;1.15;;;0.50;;
35550;SDS011;21655;46.056;13.616;2023-08-31T14:38:10;1.60;;;0.57;;
35550;SDS011;21655;46.056;13.616;2023-08-31T14:40:38;2.08;;;0.60;;
35550;SDS011;21655;46.056;13.616;2023-08-31T14:43:06;0.75;;;0.40;;
35550;SDS011;21655;46.056;13.616;2023-08-31T14:45:31;0.98;;;0.50;;
35550;SDS011;21655;46.056;13.616;2023-08-31T14:47:57;0.90;;;0.60;;
35550;SDS011;21655;46.056;13.616;2023-08-31T14:50:23;4.40;;;0.50;;
35550;SDS011;21655;46.056;13.616;2023-08-31T14:52:48;1.98;;;0.60;;
35550;SDS011;21655;46.056;13.616;2023-08-31T14:55:14;3.42;;;0.85;;
35550;SDS011;21655;46.056;13.616;2023-08-31T14:57:39;1.73;;;0.52;;
35550;SDS011;21655;46.056;13.616;2023-08-31T15:00:07;3.70;;;0.70;;
35550;SDS011;21655;46.056;13.616;2023-08-31T15:02:34;1.52;;;0.55;;
35550;SDS011;21655;46.056;13.616;2023-08-31T15:04:59;1.80;;;0.70;;
35550;SDS011;21655;46.056;13.616;2023-08-31T15:07:25;1.40;;;0.60;;
35550;SDS011;21655;46.056;13.616;2023-08-31T15:09:51;1.30;;;0.60;;
35550;SDS011;21655;46.056;13.616;2023-08-31T15:12:17;4.53;;;0.70;;